sensor_id;sensor_type;location;lat;lon;timestamp;pressure;altitude;pressure_sealevel;temperature;humidity
29359;BME280;16347;53.232;6.556;2023-08-08T00:00:29;101161.72;;;17.24;64.79
29359;BME280;16347;53.232;6.556;2023-08-08T00:02:57;101161.66;;;17.03;64.92
29359;BME280;16347;53.232;6.556;2023-08-08T00:05:25;101155.34;;;16.87;65.71
29359;BME280;16347;53.232;6.556;2023-08-08T00:07:53;101154.41;;;16.80;65.90
29359;BME280;16347;53.232;6.556;2023-08-08T00:10:22;101159.03;;;16.95;65.84
29359;BME280;16347;53.232;6.556;2023-08-08T00:12:50;101159.31;;;17.00;65.51
29359;BME280;16347;53.232;6.556;2023-08-08T00:15:18;101152.47;;;16.96;65.63
29359;BME280;16347;53.232;6.556;2023-08-08T00:17:46;101147.28;;;17.01;65.10
29359;BME280;16347;53.232;6.556;2023-08-08T00:20:14;101142.03;;;17.06;65.21
29359;BME280;16347;53.232;6.556;2023-08-08T00:22:42;101143.22;;;16.97;65.15
29359;BME280;16347;53.232;6.556;2023-08-08T00:25:10;101141.41;;;17.04;65.19
29359;BME280;16347;53.232;6.556;2023-08-08T00:27:39;101142.56;;;16.95;65.61
29359;BME280;16347;53.232;6.556;2023-08-08T00:30:11;101131.66;;;17.01;65.29
29359;BME280;16347;53.232;6.556;2023-08-08T00:32:39;101132.50;;;17.02;65.31
29359;BME280;16347;53.232;6.556;2023-08-08T00:35:08;101140.22;;;17.13;64.79
29359;BME280;16347;53.232;6.556;2023-08-08T00:37:36;101137.41;;;17.06;64.92
29359;BME280;16347;53.232;6.556;2023-08-08T00:40:05;101139.59;;;16.96;65.45
29359;BME280;16347;53.232;6.556;2023-08-08T00:42:33;101133.16;;;17.04;65.45
29359;BME280;16347;53.232;6.556;2023-08-08T00:45:04;101130.63;;;17.02;65.02
29359;BME280;16347;53.232;6.556;2023-08-08T00:47:34;101132.03;;;16.98;65.18
29359;BME280;16347;53.232;6.556;2023-08-08T00:50:04;101131.44;;;17.03;65.12
29359;BME280;16347;53.232;6.556;2023-08-08T00:52:33;101131.56;;;16.95;65.16
29359;BME280;16347;53.232;6.556;2023-08-08T00:55:03;101134.13;;;16.96;65.33
29359;BME280;16347;53.232;6.556;2023-08-08T00:57:32;101122.47;;;16.94;65.76
29359;BME280;16347;53.232;6.556;2023-08-08T01:00:02;101119.53;;;16.96;65.43
29359;BME280;16347;53.232;6.556;2023-08-08T01:02:33;101115.28;;;16.93;65.67
29359;BME280;16347;53.232;6.556;2023-08-08T01:05:02;101117.72;;;17.03;65.20
29359;BME280;16347;53.232;6.556;2023-08-08T01:07:37;101114.38;;;17.07;65.05
29359;BME280;16347;53.232;6.556;2023-08-08T01:10:09;101110.06;;;17.19;65.10
29359;BME280;16347;53.232;6.556;2023-08-08T01:12:40;101111.91;;;17.12;64.75
29359;BME280;16347;53.232;6.556;2023-08-08T01:15:10;101111.47;;;17.09;64.87
29359;BME280;16347;53.232;6.556;2023-08-08T01:17:41;101107.03;;;16.93;65.65
29359;BME280;16347;53.232;6.556;2023-08-08T01:20:11;101103.66;;;16.76;66.07
29359;BME280;16347;53.232;6.556;2023-08-08T01:22:48;101104.88;;;16.88;65.73
29359;BME280;16347;53.232;6.556;2023-08-08T01:25:20;101099.00;;;16.91;65.86
29359;BME280;16347;53.232;6.556;2023-08-08T01:27:48;101104.38;;;17.00;65.61
29359;BME280;16347;53.232;6.556;2023-08-08T01:30:16;101104.88;;;16.88;65.81
29359;BME280;16347;53.232;6.556;2023-08-08T01:32:44;101095.88;;;16.95;65.78
29359;BME280;16347;53.232;6.556;2023-08-08T01:35:12;101101.81;;;16.98;65.25
29359;BME280;16347;53.232;6.556;2023-08-08T01:37:44;101100.25;;;17.10;65.06
29359;BME280;16347;53.232;6.556;2023-08-08T01:40:15;101087.84;;;17.35;64.33
29359;BME280;16347;53.232;6.556;2023-08-08T01:42:47;101086.41;;;17.18;64.54
29359;BME280;16347;53.232;6.556;2023-08-08T01:45:16;101085.56;;;17.18;64.34
29359;BME280;16347;53.232;6.556;2023-08-08T01:47:49;101088.41;;;17.10;64.70
29359;BME280;16347;53.232;6.556;2023-08-08T01:50:17;101085.34;;;17.19;64.04
29359;BME280;16347;53.232;6.556;2023-08-08T01:52:45;101085.72;;;17.16;64.39
29359;BME280;16347;53.232;6.556;2023-08-08T01:55:13;101075.13;;;17.13;64.39
29359;BME280;16347;53.232;6.556;2023-08-08T01:57:41;101077.16;;;17.05;64.86
29359;BME280;16347;53.232;6.556;2023-08-08T02:00:11;101073.34;;;17.06;64.73
29359;BME280;16347;53.232;6.556;2023-08-08T02:02:42;101081.16;;;17.23;64.40
29359;BME280;16347;53.232;6.556;2023-08-08T02:05:11;101072.00;;;17.16;64.19
29359;BME280;16347;53.232;6.556;2023-08-08T02:07:39;101071.41;;;17.21;64.14
29359;BME280;16347;53.232;6.556;2023-08-08T02:10:07;101073.25;;;17.14;64.54
29359;BME280;16347;53.232;6.556;2023-08-08T02:12:36;101070.03;;;17.10;64.80
29359;BME280;16347;53.232;6.556;2023-08-08T02:15:05;101069.19;;;17.10;64.95
29359;BME280;16347;53.232;6.556;2023-08-08T02:17:37;101073.97;;;17.01;65.39
29359;BME280;16347;53.232;6.556;2023-08-08T02:20:07;101072.38;;;17.13;65.25
29359;BME280;16347;53.232;6.556;2023-08-08T02:22:35;101067.28;;;17.10;65.00
29359;BME280;16347;53.232;6.556;2023-08-08T02:25:04;101057.94;;;17.05;65.34
29359;BME280;16347;53.232;6.556;2023-08-08T02:27:32;101056.03;;;17.05;65.52
29359;BME280;16347;53.232;6.556;2023-08-08T02:30:00;101054.34;;;17.04;65.75
29359;BME280;16347;53.232;6.556;2023-08-08T02:32:28;101049.09;;;16.88;65.96
29359;BME280;16347;53.232;6.556;2023-08-08T02:34:57;101050.59;;;16.90;66.23
29359;BME280;16347;53.232;6.556;2023-08-08T02:37:25;101050.50;;;16.99;65.79
29359;BME280;16347;53.232;6.556;2023-08-08T02:39:53;101045.81;;;16.99;65.63
29359;BME280;16347;53.232;6.556;2023-08-08T02:42:21;101036.59;;;17.07;65.59
29359;BME280;16347;53.232;6.556;2023-08-08T02:44:49;101043.47;;;16.96;65.56
29359;BME280;16347;53.232;6.556;2023-08-08T02:47:17;101031.69;;;16.81;66.11
29359;BME280;16347;53.232;6.556;2023-08-08T02:49:46;101040.53;;;16.98;65.68
29359;BME280;16347;53.232;6.556;2023-08-08T02:52:15;101033.66;;;16.87;65.67
29359;BME280;16347;53.232;6.556;2023-08-08T02:54:43;101027.38;;;16.93;65.31
29359;BME280;16347;53.232;6.556;2023-08-08T02:57:11;101030.38;;;16.77;66.27
29359;BME280;16347;53.232;6.556;2023-08-08T02:59:40;101031.53;;;16.53;66.62
29359;BME280;16347;53.232;6.556;2023-08-08T03:02:08;101032.81;;;16.36;66.96
29359;BME280;16347;53.232;6.556;2023-08-08T03:04:38;101031.84;;;16.43;66.55
29359;BME280;16347;53.232;6.556;2023-08-08T03:07:07;101037.59;;;16.49;66.67
29359;BME280;16347;53.232;6.556;2023-08-08T03:09:38;101038.19;;;16.44;66.24
29359;BME280;16347;53.232;6.556;2023-08-08T03:12:08;101033.19;;;16.48;66.28
29359;BME280;16347;53.232;6.556;2023-08-08T03:14:37;101029.59;;;16.62;66.53
29359;BME280;16347;53.232;6.556;2023-08-08T03:17:05;101035.16;;;16.68;65.91
29359;BME280;16347;53.232;6.556;2023-08-08T03:19:33;101028.25;;;16.58;65.81
29359;BME280;16347;53.232;6.556;2023-08-08T03:22:03;101017.56;;;16.48;66.09
29359;BME280;16347;53.232;6.556;2023-08-08T03:24:34;101012.91;;;16.49;65.85
29359;BME280;16347;53.232;6.556;2023-08-08T03:27:05;101010.94;;;16.57;65.51
29359;BME280;16347;53.232;6.556;2023-08-08T03:29:34;101013.88;;;16.41;65.66
29359;BME280;16347;53.232;6.556;2023-08-08T03:32:03;101016.63;;;16.41;65.75
29359;BME280;16347;53.232;6.556;2023-08-08T03:34:32;101018.13;;;16.43;65.05
29359;BME280;16347;53.232;6.556;2023-08-08T03:37:02;101019.72;;;16.53;64.77
29359;BME280;16347;53.232;6.556;2023-08-08T03:39:30;101015.94;;;16.54;64.18
29359;BME280;16347;53.232;6.556;2023-08-08T03:41:58;101013.38;;;16.52;64.50
29359;BME280;16347;53.232;6.556;2023-08-08T03:44:29;101009.50;;;16.47;64.12
29359;BME280;16347;53.232;6.556;2023-08-08T03:46:58;101000.88;;;16.50;63.79
29359;BME280;16347;53.232;6.556;2023-08-08T03:49:43;101002.88;;;16.56;63.50
29359;BME280;16347;53.232;6.556;2023-08-08T03:52:11;101000.72;;;16.51;63.11
29359;BME280;16347;53.232;6.556;2023-08-08T03:54:40;100999.41;;;16.32;63.50
29359;BME280;16347;53.232;6.556;2023-08-08T03:57:08;100996.19;;;16.43;63.28
29359;BME280;16347;53.232;6.556;2023-08-08T03:59:39;101005.13;;;16.52;62.82
29359;BME280;16347;53.232;6.556;2023-08-08T04:02:06;101001.34;;;16.53;62.65
29359;BME280;16347;53.232;6.556;2023-08-08T04:04:36;100999.00;;;16.65;61.92
29359;BME280;16347;53.232;6.556;2023-08-08T04:07:05;100993.28;;;16.30;62.85
29359;BME280;16347;53.232;6.556;2023-08-08T04:09:33;100985.84;;;16.46;62.74
29359;BME280;16347;53.232;6.556;2023-08-08T04:12:01;100991.41;;;16.52;62.62
29359;BME280;16347;53.232;6.556;2023-08-08T04:14:29;100984.81;;;16.47;62.73
29359;BME280;16347;53.232;6.556;2023-08-08T04:16:59;100990.72;;;16.29;63.10
29359;BME280;16347;53.232;6.556;2023-08-08T04:19:27;100989.28;;;16.33;63.09
29359;BME280;16347;53.232;6.556;2023-08-08T04:21:55;100987.66;;;16.38;63.32
29359;BME280;16347;53.232;6.556;2023-08-08T04:24:24;100987.22;;;16.35;63.53
29359;BME280;16347;53.232;6.556;2023-08-08T04:26:52;100980.34;;;16.46;63.14
29359;BME280;16347;53.232;6.556;2023-08-08T04:29:20;100980.28;;;16.39;64.01
29359;BME280;16347;53.232;6.556;2023-08-08T04:31:48;100970.50;;;16.51;63.42
29359;BME280;16347;53.232;6.556;2023-08-08T04:34:17;100976.50;;;16.40;63.86
29359;BME280;16347;53.232;6.556;2023-08-08T04:36:45;100976.69;;;16.38;63.79
29359;BME280;16347;53.232;6.556;2023-08-08T04:39:13;100972.91;;;16.39;63.79
29359;BME280;16347;53.232;6.556;2023-08-08T04:41:41;100976.50;;;16.40;63.75
29359;BME280;16347;53.232;6.556;2023-08-08T04:44:09;100980.94;;;16.41;63.77
29359;BME280;16347;53.232;6.556;2023-08-08T04:46:37;100980.88;;;16.34;64.27
29359;BME280;16347;53.232;6.556;2023-08-08T04:49:04;100978.69;;;16.45;63.95
29359;BME280;16347;53.232;6.556;2023-08-08T04:51:34;100985.50;;;16.34;64.28
29359;BME280;16347;53.232;6.556;2023-08-08T04:54:02;100976.25;;;16.35;64.60
29359;BME280;16347;53.232;6.556;2023-08-08T04:56:31;100972.50;;;16.42;64.59
29359;BME280;16347;53.232;6.556;2023-08-08T04:58:59;100970.75;;;16.35;64.80
29359;BME280;16347;53.232;6.556;2023-08-08T05:01:26;100973.16;;;16.59;64.11
29359;BME280;16347;53.232;6.556;2023-08-08T05:03:54;100972.50;;;16.42;64.63
29359;BME280;16347;53.232;6.556;2023-08-08T05:06:22;100970.06;;;16.48;64.71
29359;BME280;16347;53.232;6.556;2023-08-08T05:08:52;100967.56;;;16.53;65.06
29359;BME280;16347;53.232;6.556;2023-08-08T05:11:20;100967.66;;;16.59;64.43
29359;BME280;16347;53.232;6.556;2023-08-08T05:13:48;100967.34;;;16.69;64.50
29359;BME280;16347;53.232;6.556;2023-08-08T05:16:15;100961.53;;;16.57;65.07
29359;BME280;16347;53.232;6.556;2023-08-08T05:18:43;100969.13;;;16.55;65.37
29359;BME280;16347;53.232;6.556;2023-08-08T05:21:12;100968.34;;;16.61;65.26
29359;BME280;16347;53.232;6.556;2023-08-08T05:23:39;100971.00;;;16.40;65.36
29359;BME280;16347;53.232;6.556;2023-08-08T05:26:09;100966.44;;;16.47;65.93
29359;BME280;16347;53.232;6.556;2023-08-08T05:28:36;100963.13;;;16.52;65.49
29359;BME280;16347;53.232;6.556;2023-08-08T05:31:04;100958.00;;;16.63;65.83
29359;BME280;16347;53.232;6.556;2023-08-08T05:33:33;100958.66;;;16.65;65.77
29359;BME280;16347;53.232;6.556;2023-08-08T05:36:01;100964.88;;;16.74;65.05
29359;BME280;16347;53.232;6.556;2023-08-08T05:38:29;100967.53;;;16.67;65.24
29359;BME280;16347;53.232;6.556;2023-08-08T05:40:57;100960.88;;;16.76;65.12
29359;BME280;16347;53.232;6.556;2023-08-08T05:43:26;100965.13;;;16.58;65.59
29359;BME280;16347;53.232;6.556;2023-08-08T05:45:56;100968.34;;;16.47;65.84
29359;BME280;16347;53.232;6.556;2023-08-08T05:48:24;100954.16;;;16.43;66.07
29359;BME280;16347;53.232;6.556;2023-08-08T05:50:52;100960.88;;;16.40;66.51
29359;BME280;16347;53.232;6.556;2023-08-08T05:53:20;100960.22;;;16.38;66.54
29359;BME280;16347;53.232;6.556;2023-08-08T05:55:49;100961.31;;;16.23;66.77
29359;BME280;16347;53.232;6.556;2023-08-08T05:58:16;100959.19;;;16.39;66.78
29359;BME280;16347;53.232;6.556;2023-08-08T06:00:46;100960.16;;;16.68;66.09
29359;BME280;16347;53.232;6.556;2023-08-08T06:03:14;100965.78;;;16.60;65.95
29359;BME280;16347;53.232;6.556;2023-08-08T06:05:42;100969.94;;;16.56;66.16
29359;BME280;16347;53.232;6.556;2023-08-08T06:08:09;100960.28;;;16.60;66.28
29359;BME280;16347;53.232;6.556;2023-08-08T06:10:39;100968.97;;;16.63;65.83
29359;BME280;16347;53.232;6.556;2023-08-08T06:13:07;100961.19;;;16.67;65.97
29359;BME280;16347;53.232;6.556;2023-08-08T06:15:35;100963.13;;;16.52;66.81
29359;BME280;16347;53.232;6.556;2023-08-08T06:18:05;100962.06;;;16.67;66.57
29359;BME280;16347;53.232;6.556;2023-08-08T06:20:33;100967.03;;;16.78;65.93
29359;BME280;16347;53.232;6.556;2023-08-08T06:23:02;100970.31;;;16.88;65.85
29359;BME280;16347;53.232;6.556;2023-08-08T06:25:30;100958.78;;;17.00;65.59
29359;BME280;16347;53.232;6.556;2023-08-08T06:27:58;100956.81;;;16.93;65.25
29359;BME280;16347;53.232;6.556;2023-08-08T06:30:26;100961.97;;;17.03;65.83
29359;BME280;16347;53.232;6.556;2023-08-08T06:32:54;100958.78;;;17.00;65.62
29359;BME280;16347;53.232;6.556;2023-08-08T06:35:23;100959.38;;;16.95;65.37
29359;BME280;16347;53.232;6.556;2023-08-08T06:37:51;100953.66;;;16.97;65.28
29359;BME280;16347;53.232;6.556;2023-08-08T06:40:18;100961.72;;;16.98;65.43
29359;BME280;16347;53.232;6.556;2023-08-08T06:42:47;100961.91;;;17.18;64.47
29359;BME280;16347;53.232;6.556;2023-08-08T06:45:15;100965.72;;;17.23;64.42
29359;BME280;16347;53.232;6.556;2023-08-08T06:47:43;100957.91;;;16.99;64.78
29359;BME280;16347;53.232;6.556;2023-08-08T06:50:12;100978.16;;;17.19;64.44
29359;BME280;16347;53.232;6.556;2023-08-08T06:52:41;100962.28;;;17.15;64.25
29359;BME280;16347;53.232;6.556;2023-08-08T06:55:09;100954.78;;;17.30;63.91
29359;BME280;16347;53.232;6.556;2023-08-08T06:57:38;100962.44;;;17.34;63.80
29359;BME280;16347;53.232;6.556;2023-08-08T07:00:06;100955.09;;;17.41;63.79
29359;BME280;16347;53.232;6.556;2023-08-08T07:02:35;100949.72;;;17.06;63.89
29359;BME280;16347;53.232;6.556;2023-08-08T07:05:03;100957.50;;;17.23;63.50
29359;BME280;16347;53.232;6.556;2023-08-08T07:07:31;100951.53;;;17.20;63.85
29359;BME280;16347;53.232;6.556;2023-08-08T07:10:01;100948.78;;;17.48;63.17
29359;BME280;16347;53.232;6.556;2023-08-08T07:12:30;100933.88;;;17.57;63.27
29359;BME280;16347;53.232;6.556;2023-08-08T07:14:58;100953.41;;;17.40;62.33
29359;BME280;16347;53.232;6.556;2023-08-08T07:17:26;100961.72;;;17.54;62.39
29359;BME280;16347;53.232;6.556;2023-08-08T07:19:54;100953.16;;;17.63;61.56
29359;BME280;16347;53.232;6.556;2023-08-08T07:22:23;100936.09;;;17.47;61.80
29359;BME280;16347;53.232;6.556;2023-08-08T07:24:51;100942.66;;;17.46;61.53
29359;BME280;16347;53.232;6.556;2023-08-08T07:27:20;100943.94;;;17.50;61.48
29359;BME280;16347;53.232;6.556;2023-08-08T07:29:48;100935.47;;;17.44;61.47
29359;BME280;16347;53.232;6.556;2023-08-08T07:32:17;100943.00;;;17.64;62.16
29359;BME280;16347;53.232;6.556;2023-08-08T07:34:45;100943.69;;;17.66;60.86
29359;BME280;16347;53.232;6.556;2023-08-08T07:37:13;100939.63;;;17.62;61.14
29359;BME280;16347;53.232;6.556;2023-08-08T07:39:41;100942.91;;;17.51;60.26
29359;BME280;16347;53.232;6.556;2023-08-08T07:42:09;100935.09;;;17.54;59.86
29359;BME280;16347;53.232;6.556;2023-08-08T07:44:38;100925.47;;;17.65;58.83
29359;BME280;16347;53.232;6.556;2023-08-08T07:47:06;100936.09;;;17.74;60.21
29359;BME280;16347;53.232;6.556;2023-08-08T07:49:36;100940.78;;;17.80;60.38
29359;BME280;16347;53.232;6.556;2023-08-08T07:52:05;100932.75;;;17.79;60.09
29359;BME280;16347;53.232;6.556;2023-08-08T07:54:33;100932.38;;;17.88;60.10
29359;BME280;16347;53.232;6.556;2023-08-08T07:57:01;100951.34;;;17.77;60.87
29359;BME280;16347;53.232;6.556;2023-08-08T07:59:31;100948.53;;;17.70;61.97
29359;BME280;16347;53.232;6.556;2023-08-08T08:02:00;100939.28;;;17.78;62.03
29359;BME280;16347;53.232;6.556;2023-08-08T08:04:28;100935.75;;;17.90;60.07
29359;BME280;16347;53.232;6.556;2023-08-08T08:06:56;100925.44;;;17.99;59.32
29359;BME280;16347;53.232;6.556;2023-08-08T08:09:24;100926.91;;;18.02;59.62
29359;BME280;16347;53.232;6.556;2023-08-08T08:11:52;100932.91;;;18.12;58.92
29359;BME280;16347;53.232;6.556;2023-08-08T08:14:20;100941.31;;;18.04;58.64
29359;BME280;16347;53.232;6.556;2023-08-08T08:16:48;100939.63;;;18.03;58.23
29359;BME280;16347;53.232;6.556;2023-08-08T08:19:18;100935.41;;;18.13;58.49
29359;BME280;16347;53.232;6.556;2023-08-08T08:21:46;100944.56;;;18.20;58.33
29359;BME280;16347;53.232;6.556;2023-08-08T08:24:14;100953.44;;;17.75;59.02
29359;BME280;16347;53.232;6.556;2023-08-08T08:26:44;100946.09;;;17.82;60.08
29359;BME280;16347;53.232;6.556;2023-08-08T08:29:12;100949.03;;;17.80;59.93
29359;BME280;16347;53.232;6.556;2023-08-08T08:31:40;100934.28;;;17.94;60.65
29359;BME280;16347;53.232;6.556;2023-08-08T08:34:08;100934.53;;;18.00;60.58
29359;BME280;16347;53.232;6.556;2023-08-08T08:36:37;100945.41;;;18.21;60.28
29359;BME280;16347;53.232;6.556;2023-08-08T08:39:06;100939.06;;;18.20;60.62
29359;BME280;16347;53.232;6.556;2023-08-08T08:41:35;100938.56;;;18.04;61.14
29359;BME280;16347;53.232;6.556;2023-08-08T08:44:04;100935.78;;;17.97;61.30
29359;BME280;16347;53.232;6.556;2023-08-08T08:46:33;100929.03;;;18.00;60.73
29359;BME280;16347;53.232;6.556;2023-08-08T08:49:05;100923.41;;;17.80;60.60
29359;BME280;16347;53.232;6.556;2023-08-08T08:51:35;100934.16;;;18.09;60.94
29359;BME280;16347;53.232;6.556;2023-08-08T08:54:05;100932.84;;;17.99;60.06
29359;BME280;16347;53.232;6.556;2023-08-08T08:56:34;100949.91;;;17.87;60.88
29359;BME280;16347;53.232;6.556;2023-08-08T08:59:02;100924.91;;;17.76;59.61
29359;BME280;16347;53.232;6.556;2023-08-08T09:01:31;100923.25;;;17.88;59.72
29359;BME280;16347;53.232;6.556;2023-08-08T09:03:59;100924.16;;;17.95;59.38
29359;BME280;16347;53.232;6.556;2023-08-08T09:06:28;100928.41;;;18.04;59.68
29359;BME280;16347;53.232;6.556;2023-08-08T09:08:56;100917.22;;;18.12;60.06
29359;BME280;16347;53.232;6.556;2023-08-08T09:11:42;100927.84;;;18.22;59.64
29359;BME280;16347;53.232;6.556;2023-08-08T09:14:16;100932.97;;;18.31;60.11
29359;BME280;16347;53.232;6.556;2023-08-08T09:16:45;100942.88;;;18.19;60.30
29359;BME280;16347;53.232;6.556;2023-08-08T09:19:13;100935.03;;;18.16;59.90
29359;BME280;16347;53.232;6.556;2023-08-08T09:21:41;100937.53;;;18.11;58.45
29359;BME280;16347;53.232;6.556;2023-08-08T09:24:09;100938.84;;;18.22;59.09
29359;BME280;16347;53.232;6.556;2023-08-08T09:26:38;100930.34;;;18.17;58.90
29359;BME280;16347;53.232;6.556;2023-08-08T09:29:09;100946.25;;;18.21;59.71
29359;BME280;16347;53.232;6.556;2023-08-08T09:31:38;100947.53;;;18.19;59.67
29359;BME280;16347;53.232;6.556;2023-08-08T09:34:06;100927.59;;;18.17;58.46
29359;BME280;16347;53.232;6.556;2023-08-08T09:36:34;100925.13;;;18.35;59.24
29359;BME280;16347;53.232;6.556;2023-08-08T09:39:04;100925.56;;;18.38;58.64
29359;BME280;16347;53.232;6.556;2023-08-08T09:41:33;100921.00;;;18.59;59.27
29359;BME280;16347;53.232;6.556;2023-08-08T09:44:02;100912.94;;;18.64;57.38
29359;BME280;16347;53.232;6.556;2023-08-08T09:46:32;100929.88;;;18.54;56.51
29359;BME280;16347;53.232;6.556;2023-08-08T09:49:00;100910.13;;;18.44;55.26
29359;BME280;16347;53.232;6.556;2023-08-08T09:51:29;100923.34;;;18.75;55.16
29359;BME280;16347;53.232;6.556;2023-08-08T09:53:58;100918.06;;;18.67;55.58
29359;BME280;16347;53.232;6.556;2023-08-08T09:56:26;100927.72;;;18.50;55.64
29359;BME280;16347;53.232;6.556;2023-08-08T09:58:57;100939.94;;;18.34;55.21
29359;BME280;16347;53.232;6.556;2023-08-08T10:01:25;100955.88;;;18.45;58.23
29359;BME280;16347;53.232;6.556;2023-08-08T10:03:55;100980.97;;;18.16;60.35
29359;BME280;16347;53.232;6.556;2023-08-08T10:06:24;100973.16;;;17.78;60.50
29359;BME280;16347;53.232;6.556;2023-08-08T10:08:52;100991.41;;;17.58;61.46
29359;BME280;16347;53.232;6.556;2023-08-08T10:11:22;100972.59;;;17.34;64.16
29359;BME280;16347;53.232;6.556;2023-08-08T10:13:53;100982.31;;;17.09;64.85
29359;BME280;16347;53.232;6.556;2023-08-08T10:16:22;100971.06;;;17.04;65.52
29359;BME280;16347;53.232;6.556;2023-08-08T10:18:56;100972.56;;;17.06;66.21
29359;BME280;16347;53.232;6.556;2023-08-08T10:21:25;100970.94;;;17.12;66.26
29359;BME280;16347;53.232;6.556;2023-08-08T10:24:06;100965.06;;;17.42;65.66
29359;BME280;16347;53.232;6.556;2023-08-08T10:26:50;100967.22;;;17.54;66.29
29359;BME280;16347;53.232;6.556;2023-08-08T10:29:20;100969.66;;;17.35;65.76
29359;BME280;16347;53.232;6.556;2023-08-08T10:31:52;100961.50;;;17.21;65.35
29359;BME280;16347;53.232;6.556;2023-08-08T10:34:27;100956.72;;;17.36;64.83
29359;BME280;16347;53.232;6.556;2023-08-08T10:36:57;100942.91;;;17.51;64.49
29359;BME280;16347;53.232;6.556;2023-08-08T10:39:25;100947.03;;;17.61;64.73
29359;BME280;16347;53.232;6.556;2023-08-08T10:41:53;100958.28;;;17.73;63.16
29359;BME280;16347;53.232;6.556;2023-08-08T10:44:22;100950.81;;;17.94;60.93
29359;BME280;16347;53.232;6.556;2023-08-08T10:46:51;100947.03;;;18.02;59.95
29359;BME280;16347;53.232;6.556;2023-08-08T10:49:23;100943.31;;;18.23;58.18
29359;BME280;16347;53.232;6.556;2023-08-08T10:51:51;100941.66;;;18.35;56.04
29359;BME280;16347;53.232;6.556;2023-08-08T10:54:22;100953.13;;;18.45;54.94
29359;BME280;16347;53.232;6.556;2023-08-08T10:56:56;100947.00;;;18.43;55.69
29359;BME280;16347;53.232;6.556;2023-08-08T10:59:26;100955.25;;;18.43;55.36
29359;BME280;16347;53.232;6.556;2023-08-08T11:01:56;100952.50;;;18.50;54.53
29359;BME280;16347;53.232;6.556;2023-08-08T11:04:27;100966.63;;;18.33;54.44
29359;BME280;16347;53.232;6.556;2023-08-08T11:06:56;100942.63;;;18.68;53.90
29359;BME280;16347;53.232;6.556;2023-08-08T11:09:24;100945.78;;;18.59;54.75
29359;BME280;16347;53.232;6.556;2023-08-08T11:11:53;100933.06;;;18.71;53.49
29359;BME280;16347;53.232;6.556;2023-08-08T11:14:21;100940.72;;;18.75;52.34
29359;BME280;16347;53.232;6.556;2023-08-08T11:16:51;100939.25;;;19.06;52.43
29359;BME280;16347;53.232;6.556;2023-08-08T11:19:20;100941.16;;;19.12;52.21
29359;BME280;16347;53.232;6.556;2023-08-08T11:21:51;100945.81;;;18.98;50.94
29359;BME280;16347;53.232;6.556;2023-08-08T11:24:19;100945.38;;;18.75;50.45
29359;BME280;16347;53.232;6.556;2023-08-08T11:26:47;100946.25;;;18.95;51.84
29359;BME280;16347;53.232;6.556;2023-08-08T11:29:16;100954.31;;;18.97;50.13
29359;BME280;16347;53.232;6.556;2023-08-08T11:31:44;100944.09;;;18.84;50.95
29359;BME280;16347;53.232;6.556;2023-08-08T11:34:15;100943.50;;;18.88;49.63
29359;BME280;16347;53.232;6.556;2023-08-08T11:36:44;100941.41;;;19.04;50.59
29359;BME280;16347;53.232;6.556;2023-08-08T11:39:14;100954.75;;;19.13;50.07
29359;BME280;16347;53.232;6.556;2023-08-08T11:41:43;100943.72;;;19.33;50.42
29359;BME280;16347;53.232;6.556;2023-08-08T11:44:12;100946.25;;;19.41;48.93
29359;BME280;16347;53.232;6.556;2023-08-08T11:46:44;100939.69;;;19.42;47.96
29359;BME280;16347;53.232;6.556;2023-08-08T11:49:14;100947.75;;;19.24;48.52
29359;BME280;16347;53.232;6.556;2023-08-08T11:51:43;100953.03;;;19.25;48.77
29359;BME280;16347;53.232;6.556;2023-08-08T11:54:13;100946.06;;;18.90;51.51
29359;BME280;16347;53.232;6.556;2023-08-08T11:56:42;100960.25;;;19.20;52.27
29359;BME280;16347;53.232;6.556;2023-08-08T11:59:10;100946.06;;;18.90;50.00
29359;BME280;16347;53.232;6.556;2023-08-08T12:01:41;100957.06;;;18.83;51.45
29359;BME280;16347;53.232;6.556;2023-08-08T12:04:09;100964.84;;;18.60;51.34
29359;BME280;16347;53.232;6.556;2023-08-08T12:06:38;100960.03;;;18.95;50.26
29359;BME280;16347;53.232;6.556;2023-08-08T12:09:06;100972.53;;;19.11;49.71
29359;BME280;16347;53.232;6.556;2023-08-08T12:11:35;100972.75;;;19.03;49.57
29359;BME280;16347;53.232;6.556;2023-08-08T12:14:07;100938.59;;;18.97;49.49
29359;BME280;16347;53.232;6.556;2023-08-08T12:16:37;100968.53;;;19.07;49.30
29359;BME280;16347;53.232;6.556;2023-08-08T12:19:07;100973.81;;;19.08;50.62
29359;BME280;16347;53.232;6.556;2023-08-08T12:21:37;100970.41;;;18.80;52.57
29359;BME280;16347;53.232;6.556;2023-08-08T12:24:06;100980.16;;;18.89;52.33
29359;BME280;16347;53.232;6.556;2023-08-08T12:26:36;100961.72;;;18.83;53.30
29359;BME280;16347;53.232;6.556;2023-08-08T12:29:06;100970.84;;;18.90;52.95
29359;BME280;16347;53.232;6.556;2023-08-08T12:31:34;100983.31;;;18.79;53.00
29359;BME280;16347;53.232;6.556;2023-08-08T12:34:03;100966.56;;;18.74;52.73
29359;BME280;16347;53.232;6.556;2023-08-08T12:36:31;100983.13;;;18.87;51.92
29359;BME280;16347;53.232;6.556;2023-08-08T12:38:59;100990.28;;;18.69;52.48
29359;BME280;16347;53.232;6.556;2023-08-08T12:41:27;100997.69;;;18.62;53.62
29359;BME280;16347;53.232;6.556;2023-08-08T12:43:56;100999.38;;;18.56;54.11
29359;BME280;16347;53.232;6.556;2023-08-08T12:46:25;100996.56;;;18.50;52.31
29359;BME280;16347;53.232;6.556;2023-08-08T12:48:54;101015.91;;;18.56;52.10
29359;BME280;16347;53.232;6.556;2023-08-08T12:51:22;100986.50;;;18.70;51.73
29359;BME280;16347;53.232;6.556;2023-08-08T12:53:50;100981.44;;;18.80;51.88
29359;BME280;16347;53.232;6.556;2023-08-08T12:56:18;100981.44;;;19.00;51.02
29359;BME280;16347;53.232;6.556;2023-08-08T12:58:46;100990.59;;;19.13;50.91